createdAt,value
2018-06-09T00:01:27.674Z,15.67
2018-06-09T00:03:56.518Z,21.67
2018-06-09T00:06:25.472Z,18.73
2018-06-09T00:08:54.423Z,20.63
2018-06-09T00:11:23.272Z,19.73
2018-06-09T00:13:52.227Z,20.63
2018-06-09T00:16:21.211Z,16.83
2018-06-09T00:18:50.015Z,23.97
2018-06-09T00:21:21.102Z,20.57
2018-06-09T00:23:49.959Z,21.03
2018-06-09T00:26:18.834Z,15.93
2018-06-09T00:28:47.674Z,24.60
2018-06-09T00:31:16.522Z,22.23
2018-06-09T00:33:45.507Z,11.37
2018-06-09T00:36:14.351Z,8.37
2018-06-09T00:38:43.319Z,14.17
2018-06-09T00:41:12.263Z,8.50
2018-06-09T00:43:41.066Z,9.67
2018-06-09T00:46:09.903Z,10.43
2018-06-09T00:48:38.720Z,8.63
2018-06-09T00:51:07.633Z,7.63
2018-06-09T00:53:36.237Z,7.70
2018-06-09T00:56:16.310Z,6.03
2018-06-09T00:58:45.146Z,7.03
2018-06-09T01:01:13.966Z,6.87
2018-06-09T01:03:42.778Z,7.70
2018-06-09T01:06:11.589Z,6.10
2018-06-09T01:08:40.420Z,5.60
2018-06-09T01:11:09.274Z,7.30
2018-06-09T01:13:38.092Z,8.33
2018-06-09T01:16:06.893Z,5.40
2018-06-09T01:18:35.697Z,7.93
2018-06-09T01:21:04.529Z,7.63
2018-06-09T01:23:33.331Z,6.90
2018-06-09T01:26:02.147Z,8.97
2018-06-09T01:28:30.950Z,5.57
2018-06-09T01:30:59.782Z,7.80
2018-06-09T01:33:28.792Z,5.10
2018-06-09T01:35:57.622Z,6.67
2018-06-09T01:38:26.445Z,5.73
2018-06-09T01:40:55.271Z,4.70
2018-06-09T01:43:24.126Z,4.93
2018-06-09T01:45:52.747Z,5.63
2018-06-09T01:48:21.430Z,7.63
2018-06-09T01:50:50.241Z,5.23
2018-06-09T01:53:19.059Z,4.70
2018-06-09T01:55:47.883Z,9.20
2018-06-09T01:58:16.842Z,5.63
2018-06-09T02:00:45.663Z,4.73
2018-06-09T02:03:14.477Z,4.87
2018-06-09T02:05:43.290Z,5.10
2018-06-09T02:08:12.113Z,9.47
2018-06-09T02:10:40.937Z,4.17
2018-06-09T02:13:09.749Z,4.80
2018-06-09T02:15:38.555Z,5.80
2018-06-09T02:18:07.437Z,5.97
2018-06-09T02:20:36.242Z,5.57
2018-06-09T02:23:05.106Z,4.43
2018-06-09T02:25:33.939Z,5.13
2018-06-09T02:28:02.774Z,5.60
2018-06-09T02:30:31.596Z,6.07
2018-06-09T02:33:00.198Z,4.47
2018-06-09T02:35:28.962Z,7.40
2018-06-09T02:37:57.787Z,5.03
2018-06-09T02:40:26.610Z,8.77
2018-06-09T02:42:55.450Z,5.33
2018-06-09T02:45:24.254Z,4.70
2018-06-09T02:47:53.088Z,6.13
2018-06-09T02:50:21.912Z,7.00
2018-06-09T02:52:50.770Z,7.83
2018-06-09T02:55:19.596Z,7.27
2018-06-09T02:57:48.406Z,4.77
2018-06-09T03:00:17.225Z,5.27
2018-06-09T03:02:46.035Z,4.50
2018-06-09T03:05:14.638Z,4.80
2018-06-09T03:07:43.330Z,6.57
2018-06-09T03:10:12.146Z,5.17
2018-06-09T03:12:40.982Z,6.03
2018-06-09T03:15:09.810Z,6.93
2018-06-09T03:17:38.633Z,5.23
2018-06-09T03:20:07.454Z,4.47
2018-06-09T03:22:36.054Z,4.70
2018-06-09T03:25:05.607Z,6.87
2018-06-09T03:27:34.430Z,5.80
2018-06-09T03:30:03.041Z,5.43
2018-06-09T03:32:31.827Z,6.10
2018-06-09T03:35:00.614Z,5.10
2018-06-09T03:37:29.470Z,7.57
2018-06-09T03:39:58.073Z,4.73
2018-06-09T03:42:26.770Z,4.47
2018-06-09T03:44:55.600Z,5.37
2018-06-09T03:47:24.414Z,5.20
2018-06-09T03:49:53.242Z,5.43
2018-06-09T03:52:22.065Z,6.43
2018-06-09T03:54:50.897Z,4.37
2018-06-09T03:57:19.787Z,5.37
2018-06-09T03:59:48.696Z,5.07
2018-06-09T04:02:17.517Z,4.87
2018-06-09T04:04:46.524Z,5.23
2018-06-09T04:07:15.342Z,4.80
2018-06-09T04:09:44.177Z,4.40
2018-06-09T04:12:13.019Z,4.00
2018-06-09T04:14:41.860Z,4.10
2018-06-09T04:17:10.738Z,4.80
2018-06-09T04:19:39.584Z,5.03
2018-06-09T04:22:08.402Z,5.17
2018-06-09T04:24:37.266Z,6.43
2018-06-09T04:27:06.078Z,4.07
2018-06-09T04:29:34.890Z,5.73
2018-06-09T04:32:03.710Z,4.77
2018-06-09T04:34:32.525Z,5.60
2018-06-09T04:37:01.356Z,4.27
2018-06-09T04:39:30.223Z,3.97
2018-06-09T04:41:59.048Z,5.10
2018-06-09T04:44:27.885Z,6.43
2018-06-09T04:46:56.738Z,5.97
2018-06-09T04:49:25.552Z,6.13
2018-06-09T04:51:54.387Z,6.40
2018-06-09T04:54:23.244Z,3.93
2018-06-09T04:56:52.054Z,6.57
2018-06-09T04:59:20.949Z,5.57
2018-06-09T05:01:49.678Z,3.33
2018-06-09T05:04:18.527Z,3.47
2018-06-09T05:06:47.350Z,3.50
2018-06-09T05:09:15.945Z,4.27
2018-06-09T05:11:44.666Z,5.80
2018-06-09T05:14:13.485Z,3.73
2018-06-09T05:16:42.311Z,3.80
2018-06-09T05:19:11.178Z,4.13
2018-06-09T05:21:39.990Z,4.73
2018-06-09T05:24:08.835Z,2.53
2018-06-09T05:26:37.652Z,2.60
2018-06-09T05:29:06.486Z,4.73
2018-06-09T05:31:35.311Z,3.33
2018-06-09T05:34:04.118Z,3.73
2018-06-09T05:36:32.946Z,3.47
2018-06-09T05:39:01.786Z,2.80
2018-06-09T05:41:30.594Z,3.93
2018-06-09T05:43:59.424Z,3.30
2018-06-09T05:46:28.254Z,4.43
2018-06-09T05:48:57.074Z,4.90
2018-06-09T05:51:25.903Z,4.47
2018-06-09T05:53:54.726Z,4.13
2018-06-09T05:56:23.566Z,3.20
2018-06-09T05:58:52.402Z,5.07
2018-06-09T06:01:21.312Z,4.17
2018-06-09T06:03:50.153Z,3.97
2018-06-09T06:06:18.979Z,3.50
2018-06-09T06:08:47.786Z,4.77
2018-06-09T06:11:16.611Z,6.83
2018-06-09T06:13:45.477Z,2.90
2018-06-09T06:16:14.306Z,4.43
2018-06-09T06:18:42.930Z,3.37
2018-06-09T06:21:11.641Z,4.97
2018-06-09T06:23:40.458Z,5.63
2018-06-09T06:26:09.301Z,2.87
2018-06-09T06:28:38.154Z,3.97
2018-06-09T06:31:07.096Z,3.87
2018-06-09T06:33:36.550Z,3.20
2018-06-09T06:36:05.252Z,4.13
2018-06-09T06:38:34.094Z,5.70
2018-06-09T06:41:02.950Z,4.40
2018-06-09T06:43:31.774Z,4.67
2018-06-09T06:46:00.662Z,4.57
2018-06-09T06:48:29.503Z,3.47
2018-06-09T06:50:58.330Z,3.90
2018-06-09T06:53:27.170Z,4.37
2018-06-09T06:55:56.018Z,5.17
2018-06-09T06:58:24.841Z,4.07
2018-06-09T07:00:53.696Z,3.53
2018-06-09T07:03:22.393Z,3.40
2018-06-09T07:05:51.108Z,3.17
2018-06-09T07:08:19.946Z,5.63
2018-06-09T07:10:49.258Z,3.27
2018-06-09T07:13:18.094Z,2.93
2018-06-09T07:15:46.923Z,10.40
2018-06-09T07:18:15.786Z,9.60
2018-06-09T07:20:44.406Z,21.70
2018-06-09T07:23:12.893Z,10.57
2018-06-09T07:25:41.590Z,10.93
2018-06-09T07:28:10.424Z,10.57
2018-06-09T07:30:39.262Z,12.13
2018-06-09T07:33:08.310Z,10.67
2018-06-09T07:35:37.203Z,10.13
2018-06-09T07:38:06.242Z,10.10
2018-06-09T07:40:35.099Z,10.60
2018-06-09T07:43:03.937Z,11.73
2018-06-09T07:45:32.773Z,13.43
2018-06-09T07:48:01.603Z,10.53
2018-06-09T07:50:30.542Z,15.27
2018-06-09T07:52:59.528Z,12.30
2018-06-09T07:55:28.338Z,7.97
2018-06-09T07:57:57.238Z,13.27
2018-06-09T08:00:26.323Z,11.93
2018-06-09T08:02:56.914Z,12.77
2018-06-09T08:05:25.858Z,14.17
2018-06-09T08:07:54.674Z,10.40
2018-06-09T08:10:23.755Z,8.77
2018-06-09T08:12:52.638Z,12.70
2018-06-09T08:15:21.511Z,8.90
2018-06-09T08:17:50.346Z,10.60
2018-06-09T08:20:19.298Z,13.87
2018-06-09T08:22:48.158Z,10.77
2018-06-09T08:25:16.990Z,12.27
2018-06-09T08:27:47.364Z,12.10
2018-06-09T08:30:16.186Z,13.97
2018-06-09T08:32:45.069Z,10.93
2018-06-09T08:35:13.890Z,11.53
2018-06-09T08:37:42.739Z,20.23
2018-06-09T08:40:11.662Z,9.90
2018-06-09T08:42:40.502Z,13.33
2018-06-09T08:45:09.394Z,7.70
2018-06-09T08:47:38.226Z,12.07
2018-06-09T08:50:07.070Z,15.10
2018-06-09T08:52:35.944Z,11.23
2018-06-09T08:55:04.807Z,11.70
2018-06-09T08:57:33.658Z,9.20
2018-06-09T09:00:02.526Z,10.97
2018-06-09T09:02:31.363Z,13.00
2018-06-09T09:05:00.319Z,13.77
2018-06-09T09:07:29.174Z,14.37
2018-06-09T09:09:58.023Z,9.07
2018-06-09T09:12:26.906Z,12.53
2018-06-09T09:14:55.980Z,12.60
2018-06-09T09:17:24.799Z,14.73
2018-06-09T09:19:53.707Z,13.47
2018-06-09T09:22:22.540Z,13.97
2018-06-09T09:24:51.370Z,11.93
2018-06-09T09:27:20.222Z,12.40
2018-06-09T09:29:49.073Z,16.60
2018-06-09T09:32:17.906Z,11.30
2018-06-09T09:34:46.734Z,11.07
2018-06-09T09:37:15.564Z,14.43
2018-06-09T09:39:44.394Z,11.60
2018-06-09T09:42:13.292Z,11.00
2018-06-09T09:44:42.150Z,13.90
2018-06-09T09:47:10.777Z,11.63
2018-06-09T09:49:39.486Z,12.97
2018-06-09T09:52:08.313Z,10.47
2018-06-09T09:54:36.966Z,6.60
2018-06-09T09:57:05.670Z,9.77
2018-06-09T09:59:34.605Z,4.87
2018-06-09T10:02:03.525Z,5.47
2018-06-09T10:04:32.346Z,6.63
2018-06-09T10:07:01.171Z,8.80
2018-06-09T10:09:30.021Z,10.03
2018-06-09T10:11:58.878Z,6.30
2018-06-09T10:14:27.750Z,5.47
2018-06-09T10:16:56.564Z,5.07
2018-06-09T10:19:25.418Z,10.17
2018-06-09T10:21:54.257Z,6.37
2018-06-09T10:24:23.103Z,4.07
2018-06-09T10:26:51.946Z,7.23
2018-06-09T10:29:20.782Z,4.70
2018-06-09T10:31:49.627Z,5.97
2018-06-09T10:34:18.478Z,5.13
2018-06-09T10:36:47.290Z,4.57
2018-06-09T10:39:16.126Z,3.97
2018-06-09T10:41:45.023Z,6.23
2018-06-09T10:44:13.938Z,6.07
2018-06-09T10:46:42.790Z,7.83
2018-06-09T10:49:11.619Z,9.00
2018-06-09T10:51:40.455Z,4.50
2018-06-09T10:54:09.309Z,4.83
2018-06-09T10:56:38.159Z,3.30
2018-06-09T10:59:06.967Z,5.10
2018-06-09T11:01:35.838Z,4.20
2018-06-09T11:04:04.670Z,3.93
2018-06-09T11:06:33.493Z,5.63
2018-06-09T11:09:02.327Z,5.93
2018-06-09T11:11:31.150Z,4.60
2018-06-09T11:13:59.978Z,4.63
2018-06-09T11:35:49.408Z,4.00
2018-06-09T11:38:18.210Z,5.00
2018-06-09T11:40:46.825Z,7.63
2018-06-09T11:43:15.579Z,7.03
2018-06-09T11:45:44.194Z,5.83
2018-06-09T11:48:12.982Z,3.90
2018-06-09T11:50:41.833Z,6.17
2018-06-09T11:53:10.683Z,4.70
2018-06-09T11:55:39.619Z,9.10
2018-06-09T11:58:08.253Z,5.97
2018-06-09T12:00:36.986Z,6.53
2018-06-09T12:03:05.609Z,5.23
2018-06-09T12:05:34.394Z,13.27
2018-06-09T12:08:03.205Z,8.37
2018-06-09T12:10:32.022Z,19.90
2018-06-09T12:13:00.894Z,12.33
2018-06-09T12:15:29.726Z,14.90
2018-06-09T12:17:58.566Z,13.60
2018-06-09T12:20:27.439Z,13.07
2018-06-09T12:22:56.278Z,38.43
2018-06-09T12:25:25.110Z,13.27
2018-06-09T12:27:53.954Z,18.83
2018-06-09T12:30:22.850Z,10.73
2018-06-09T12:32:51.684Z,11.80
2018-06-09T12:35:20.558Z,15.33
2018-06-09T12:37:49.434Z,14.10
2018-06-09T12:40:18.408Z,9.47
2018-06-09T12:42:47.017Z,10.60
2018-06-09T12:45:15.526Z,12.17
2018-06-09T12:47:44.307Z,14.87
2018-06-09T12:50:13.185Z,11.10
2018-06-09T12:52:42.093Z,16.23
2018-06-09T12:55:10.929Z,11.83
2018-06-09T12:57:39.750Z,14.07
2018-06-09T13:00:08.570Z,11.13
2018-06-09T13:02:37.439Z,12.30
2018-06-09T13:05:06.329Z,9.47
2018-06-09T13:07:35.154Z,11.53
2018-06-09T13:10:03.846Z,9.77
2018-06-09T13:12:32.882Z,9.20
2018-06-09T13:15:01.746Z,9.20
2018-06-09T13:17:30.735Z,12.57
2018-06-09T13:19:59.591Z,16.53
2018-06-09T13:22:28.598Z,12.03
2018-06-09T13:24:57.430Z,10.70
2018-06-09T13:27:26.291Z,15.80
2018-06-09T13:29:55.177Z,11.50
2018-06-09T13:32:24.071Z,12.23
2018-06-09T13:34:52.938Z,9.53
2018-06-09T13:37:21.915Z,8.97
2018-06-09T13:39:50.888Z,10.53
2018-06-09T13:42:19.762Z,11.83
2018-06-09T13:44:48.622Z,12.73
2018-06-09T13:47:17.503Z,11.53
2018-06-09T13:49:46.141Z,14.73
2018-06-09T13:52:14.870Z,10.83
2018-06-09T13:54:43.522Z,11.93
2018-06-09T13:57:12.250Z,12.80
2018-06-09T13:59:41.114Z,11.67
2018-06-09T14:02:09.984Z,14.70
2018-06-09T14:04:38.860Z,13.80
2018-06-09T14:07:07.715Z,17.60
2018-06-09T14:09:36.654Z,14.60
2018-06-09T14:12:05.554Z,12.80
2018-06-09T14:14:34.462Z,23.57
2018-06-09T14:17:03.502Z,15.40
2018-06-09T14:19:32.359Z,19.30
2018-06-09T14:22:01.207Z,10.00
2018-06-09T14:24:30.134Z,9.93
2018-06-09T14:26:59.089Z,13.77
2018-06-09T14:29:27.880Z,10.37
2018-06-09T14:31:56.754Z,11.67
2018-06-09T14:34:25.639Z,7.77
2018-06-09T14:36:54.515Z,12.43
2018-06-09T14:39:23.369Z,11.37
2018-06-09T14:41:52.248Z,10.50
2018-06-09T14:44:20.905Z,7.43
2018-06-09T14:46:49.609Z,6.97
2018-06-09T14:49:18.424Z,7.30
2018-06-09T14:51:47.307Z,8.33
2018-06-09T14:54:16.180Z,8.37
2018-06-09T14:56:45.064Z,7.00
2018-06-09T14:59:13.920Z,9.33
2018-06-09T15:01:42.737Z,8.47
2018-06-09T15:04:11.574Z,5.83
2018-06-09T15:06:40.411Z,8.57
2018-06-09T15:09:09.364Z,7.80
2018-06-09T15:11:38.188Z,6.20
2018-06-09T15:14:07.030Z,5.57
2018-06-09T15:16:35.858Z,6.23
2018-06-09T15:19:04.714Z,8.27
2018-06-09T15:21:33.596Z,8.13
2018-06-09T15:24:02.443Z,8.23
2018-06-09T15:26:31.569Z,6.90
2018-06-09T15:29:00.434Z,5.73
2018-06-09T15:31:29.833Z,10.43
2018-06-09T15:33:58.746Z,6.83
2018-06-09T15:36:27.579Z,5.23
2018-06-09T15:38:56.450Z,9.07
2018-06-09T15:41:25.282Z,7.93
2018-06-09T15:43:54.210Z,5.60
2018-06-09T15:46:23.219Z,7.73
2018-06-09T15:48:52.213Z,5.13
2018-06-09T15:51:21.057Z,9.03
2018-06-09T15:53:49.872Z,7.33
2018-06-09T15:56:18.744Z,5.80
2018-06-09T15:58:47.582Z,6.77
2018-06-09T16:01:16.410Z,9.67
2018-06-09T16:03:45.279Z,8.07
2018-06-09T16:06:14.110Z,6.20
2018-06-09T16:08:42.978Z,9.40
2018-06-09T16:11:11.793Z,6.73
2018-06-09T16:13:40.659Z,8.80
2018-06-09T16:16:09.485Z,6.53
2018-06-09T16:18:38.423Z,5.17
2018-06-09T16:21:07.309Z,10.37
2018-06-09T16:23:36.144Z,9.37
2018-06-09T16:26:05.226Z,6.97
2018-06-09T16:28:34.071Z,7.57
2018-06-09T16:31:02.920Z,6.37
2018-06-09T16:33:31.790Z,6.53
2018-06-09T16:36:00.618Z,5.00
2018-06-09T16:38:29.517Z,8.60
2018-06-09T16:40:58.335Z,8.40
2018-06-09T16:43:27.171Z,9.20
2018-06-09T16:45:56.026Z,5.53
2018-06-09T16:48:24.864Z,7.67
2018-06-09T16:50:53.737Z,7.53
2018-06-09T16:53:22.599Z,5.50
2018-06-09T16:55:51.462Z,7.57
2018-06-09T16:58:20.287Z,5.47
2018-06-09T17:00:49.157Z,6.13
2018-06-09T17:03:17.995Z,7.03
2018-06-09T17:05:46.846Z,6.70
2018-06-09T17:08:15.670Z,5.13
2018-06-09T17:10:44.567Z,4.73
2018-06-09T17:13:13.444Z,6.33
2018-06-09T17:15:42.467Z,7.67
2018-06-09T17:18:11.310Z,7.43
2018-06-09T17:20:40.536Z,5.63
2018-06-09T17:23:09.453Z,6.30
2018-06-09T17:25:38.281Z,12.50
2018-06-09T17:28:07.108Z,8.03
2018-06-09T17:30:36.022Z,5.90
2018-06-09T17:33:04.926Z,7.10
2018-06-09T17:35:33.762Z,8.60
2018-06-09T17:38:02.606Z,7.67
2018-06-09T17:40:31.557Z,6.83
2018-06-09T17:43:00.408Z,5.43
2018-06-09T17:45:29.271Z,7.53
2018-06-09T17:47:58.133Z,5.67
2018-06-09T17:50:26.963Z,7.10
2018-06-09T17:52:55.832Z,8.20
2018-06-09T17:55:24.711Z,8.50
2018-06-09T17:57:53.514Z,7.67
2018-06-09T18:00:22.414Z,9.77
2018-06-09T18:02:51.428Z,8.50
2018-06-09T18:05:20.373Z,5.77
2018-06-09T18:07:49.274Z,7.10
2018-06-09T18:10:18.155Z,7.17
2018-06-09T18:12:47.034Z,5.73
2018-06-09T18:15:15.878Z,6.67
2018-06-09T18:17:44.690Z,6.03
2018-06-09T18:20:13.522Z,7.80
2018-06-09T18:22:42.496Z,7.33
2018-06-09T18:25:11.462Z,9.50
2018-06-09T18:27:40.245Z,6.83
2018-06-09T18:30:09.062Z,8.77
2018-06-09T18:32:37.898Z,5.93
2018-06-09T18:35:06.800Z,7.90
2018-06-09T18:37:35.703Z,7.37
2018-06-09T18:40:04.547Z,9.23
2018-06-09T18:42:33.374Z,8.00
2018-06-09T18:45:02.278Z,9.13
2018-06-09T18:47:31.150Z,11.20
2018-06-09T18:49:59.994Z,11.07
2018-06-09T18:52:28.860Z,7.43
2018-06-09T18:54:57.738Z,5.83
2018-06-09T18:57:26.639Z,6.10
2018-06-09T18:59:55.487Z,8.27
2018-06-09T19:02:24.334Z,6.77
2018-06-09T19:04:53.250Z,7.07
2018-06-09T19:07:22.146Z,7.20
2018-06-09T19:09:51.058Z,6.63
2018-06-09T19:12:19.954Z,6.70
2018-06-09T19:14:48.935Z,7.90
2018-06-09T19:17:17.838Z,10.83
2018-06-09T19:19:46.719Z,6.00
2018-06-09T19:22:15.627Z,6.37
2018-06-09T19:24:44.458Z,8.23
2018-06-09T19:27:13.302Z,7.63
2018-06-09T19:29:42.204Z,7.77
2018-06-09T19:32:11.117Z,7.20
2018-06-09T19:34:40.009Z,7.20
2018-06-09T19:37:08.841Z,5.87
2018-06-09T19:39:37.719Z,7.70
2018-06-09T19:42:06.570Z,8.13
2018-06-09T19:44:35.458Z,7.23
2018-06-09T19:47:04.510Z,5.43
2018-06-09T19:49:33.334Z,8.47
2018-06-09T19:52:02.222Z,8.67
2018-06-09T19:54:31.107Z,8.30
2018-06-09T19:56:59.954Z,8.00
2018-06-09T19:59:28.782Z,7.37
2018-06-09T20:01:57.604Z,7.47
2018-06-09T20:04:26.534Z,8.10
2018-06-09T20:06:55.379Z,6.57
2018-06-09T20:09:24.279Z,7.87
2018-06-09T20:11:53.161Z,5.97
2018-06-09T20:14:21.978Z,6.00
2018-06-09T20:16:50.816Z,7.80
2018-06-09T20:19:19.669Z,7.13
2018-06-09T20:21:48.387Z,6.57
2018-06-09T20:24:17.222Z,6.90
2018-06-09T20:26:46.066Z,8.23
2018-06-09T20:29:14.910Z,6.53
2018-06-09T20:31:44.082Z,5.63
2018-06-09T20:34:12.984Z,7.73
2018-06-09T20:36:41.881Z,5.00
2018-06-09T20:39:10.938Z,5.60
2018-06-09T20:41:39.786Z,6.90
2018-06-09T20:44:08.606Z,6.10
2018-06-09T20:46:37.486Z,7.43
2018-06-09T20:49:06.308Z,6.87
2018-06-09T20:51:35.130Z,7.93
2018-06-09T20:54:03.990Z,5.67
2018-06-09T20:56:32.823Z,7.07
2018-06-09T20:59:01.653Z,5.73
2018-06-09T21:01:30.520Z,6.97
2018-06-09T21:03:59.398Z,5.33
2018-06-09T21:06:28.262Z,8.17
2018-06-09T21:08:57.100Z,6.53
2018-06-09T21:11:25.973Z,6.83
2018-06-09T21:13:54.894Z,7.20
2018-06-09T21:16:23.719Z,7.40
2018-06-09T21:18:52.597Z,5.83
2018-06-09T21:21:21.462Z,7.93
2018-06-09T21:23:50.342Z,6.73
2018-06-09T21:26:19.148Z,8.53
2018-06-09T21:28:53.415Z,6.77
2018-06-09T21:31:27.459Z,6.27
2018-06-09T21:34:07.805Z,5.50
2018-06-09T21:36:42.014Z,6.63
2018-06-09T21:39:16.211Z,7.53
2018-06-09T21:41:51.615Z,6.77
2018-06-09T21:44:25.950Z,7.97
2018-06-09T21:46:54.796Z,6.60
2018-06-09T21:49:23.618Z,7.70
2018-06-09T21:51:52.462Z,7.23
2018-06-09T21:54:21.314Z,6.00
2018-06-09T21:56:50.321Z,7.00
2018-06-09T21:59:19.195Z,5.97
2018-06-09T22:01:48.038Z,6.73
2018-06-09T22:04:16.927Z,7.70
2018-06-09T22:06:45.799Z,8.60
2018-06-09T22:09:14.468Z,8.53
2018-06-09T22:11:43.299Z,15.87
2018-06-09T22:14:12.159Z,20.30
2018-06-09T22:16:40.991Z,17.67
2018-06-09T22:19:09.829Z,16.07
2018-06-09T22:21:38.481Z,16.07
2018-06-09T22:24:07.214Z,17.47
2018-06-09T22:26:36.062Z,17.97
2018-06-09T22:29:05.019Z,17.10
2018-06-09T22:31:33.886Z,17.93
2018-06-09T22:34:02.780Z,18.60
2018-06-09T22:36:32.266Z,15.60
2018-06-09T22:39:01.167Z,16.10
2018-06-09T22:41:30.024Z,19.60
2018-06-09T22:43:58.898Z,12.67
2018-06-09T22:46:27.841Z,17.00
2018-06-09T22:48:56.694Z,17.53
2018-06-09T22:51:25.794Z,15.77
2018-06-09T22:53:54.652Z,16.37
2018-06-09T22:56:23.572Z,16.60
2018-06-09T22:58:52.404Z,18.13
2018-06-09T23:01:21.226Z,9.50
2018-06-09T23:03:50.115Z,10.83
2018-06-09T23:06:18.998Z,14.53
2018-06-09T23:08:47.888Z,14.33
2018-06-09T23:11:16.805Z,12.80
2018-06-09T23:13:45.726Z,12.67
2018-06-09T23:16:14.560Z,8.78
2018-06-09T23:18:43.784Z,9.13
2018-06-09T23:21:12.673Z,17.87
2018-06-09T23:23:41.600Z,7.77
2018-06-09T23:26:10.477Z,10.83
2018-06-09T23:28:39.129Z,10.20
2018-06-09T23:31:08.106Z,6.10
2018-06-09T23:33:36.987Z,5.97
2018-06-09T23:36:05.887Z,10.83
2018-06-09T23:38:34.834Z,8.77
2018-06-09T23:41:03.694Z,9.13
2018-06-09T23:43:32.596Z,8.07
2018-06-09T23:46:01.462Z,9.70
2018-06-09T23:48:30.318Z,8.17
2018-06-09T23:51:01.937Z,8.23
2018-06-09T23:53:30.986Z,9.27
2018-06-09T23:55:59.931Z,7.20
2018-06-09T23:58:28.950Z,8.00
